地図

経路データ

SID SEASON NUMBER BASIN SUBBASIN NAME ISO_TIME NATURE LAT LON WMO_WIND WMO_PRES WMO_AGENCY TRACK_TYPE DIST2LAND LANDFALL IFLAG USA_AGENCY USA_ATCF_ID USA_LAT USA_LON USA_RECORD USA_STATUS USA_WIND USA_PRES USA_SSHS USA_R34_NE USA_R34_SE USA_R34_SW USA_R34_NW USA_R50_NE USA_R50_SE USA_R50_SW USA_R50_NW USA_R64_NE USA_R64_SE USA_R64_SW USA_R64_NW USA_POCI USA_ROCI USA_RMW USA_EYE TOKYO_LAT TOKYO_LON TOKYO_GRADE TOKYO_WIND TOKYO_PRES TOKYO_R50_DIR TOKYO_R50_LONG TOKYO_R50_SHORT TOKYO_R30_DIR TOKYO_R30_LONG TOKYO_R30_SHORT TOKYO_LAND CMA_LAT CMA_LON CMA_CAT CMA_WIND CMA_PRES HKO_LAT HKO_LON HKO_CAT HKO_WIND HKO_PRES NEWDELHI_LAT NEWDELHI_LON NEWDELHI_GRADE NEWDELHI_WIND NEWDELHI_PRES NEWDELHI_CI NEWDELHI_DP NEWDELHI_POCI REUNION_LAT REUNION_LON REUNION_TYPE REUNION_WIND REUNION_PRES REUNION_TNUM REUNION_CI REUNION_RMW REUNION_R34_NE REUNION_R34_SE REUNION_R34_SW REUNION_R34_NW REUNION_R50_NE REUNION_R50_SE REUNION_R50_SW REUNION_R50_NW REUNION_R64_NE REUNION_R64_SE REUNION_R64_SW REUNION_R64_NW BOM_LAT BOM_LON BOM_TYPE BOM_WIND BOM_PRES BOM_TNUM BOM_CI BOM_RMW BOM_R34_NE BOM_R34_SE BOM_R34_SW BOM_R34_NW BOM_R50_NE BOM_R50_SE BOM_R50_SW BOM_R50_NW BOM_R64_NE BOM_R64_SE BOM_R64_SW BOM_R64_NW BOM_ROCI BOM_POCI BOM_EYE BOM_POS_METHOD BOM_PRES_METHOD NADI_LAT NADI_LON NADI_CAT NADI_WIND NADI_PRES WELLINGTON_LAT WELLINGTON_LON WELLINGTON_WIND WELLINGTON_PRES DS824_LAT DS824_LON DS824_STAGE DS824_WIND DS824_PRES TD9636_LAT TD9636_LON TD9636_STAGE TD9636_WIND TD9636_PRES TD9635_LAT TD9635_LON TD9635_WIND TD9635_PRES TD9635_ROCI NEUMANN_LAT NEUMANN_LON NEUMANN_CLASS NEUMANN_WIND NEUMANN_PRES MLC_LAT MLC_LON MLC_CLASS MLC_WIND MLC_PRES USA_GUST BOM_GUST BOM_GUST_PER REUNION_GUST REUNION_GUST_PER USA_SEAHGT USA_SEARAD_NE USA_SEARAD_SE USA_SEARAD_SW USA_SEARAD_NW STORM_SPEED STORM_DIR
1935050S13057 1935 10 SI MM NOT_NAMED 1935-02-18 18:00:00 NR -12.5000 56.6000 main 719 700 __________O___ -1 -12.5000 56.6000 4 5 296
1935050S13057 1935 10 SI MM NOT_NAMED 1935-02-18 21:00:00 NR -12.3988 56.3849 main 700 647 __________P___ -1 -12.3988 56.3849 4 7 275
1935050S13057 1935 10 SI MM NOT_NAMED 1935-02-19 00:00:00 TS -12.4436 55.8871 main 647 576 _________OP___ -1 -12.7000 55.2000 TC 65 -12.3582 56.1161 4 11 253
1935050S13057 1935 10 SI MM NOT_NAMED 1935-02-19 03:00:00 TS -12.7224 55.2998 main 576 491 _________PP___ -1 -13.2902 54.4203 TC 65 -12.4385 55.7395 4 15 240
1935050S13057 1935 10 SI MM NOT_NAMED 1935-02-19 06:00:00 TS -13.2143 54.5143 main 480 378 _________OO___ -1 -13.9000 53.6000 TC 65 -12.7000 55.2000 4 20 236
1935050S13057 1935 10 SI MM NOT_NAMED 1935-02-19 09:00:00 TS -13.8533 53.6041 main 364 273 _________PP___ -1 -14.5302 52.7404 TC 65 -13.1764 54.4679 4 21 233
1935050S13057 1935 10 SI MM NOT_NAMED 1935-02-19 12:00:00 TS -14.4491 52.8100 main 263 183 _________OP___ -1 -15.1000 52.0000 TC 65 -13.7981 53.6200 4 18 231
1935050S13057 1935 10 SI MM NOT_NAMED 1935-02-19 15:00:00 TS -15.0000 52.1504 main 183 118 _________PP___ -1 -15.5295 51.5393 TC 65 -14.4704 52.7615 4 16 228
1935050S13057 1935 10 SI MM NOT_NAMED 1935-02-19 18:00:00 TS -15.5000 51.6000 main 118 87 _________OO___ -1 -15.9000 51.2000 TC 65 -15.1000 52.0000 4 14 227
1935050S13057 1935 10 SI MM NOT_NAMED 1935-02-19 21:00:00 TS -15.9221 51.1278 main 82 63 _________PP___ -1 -16.2925 50.7849 TC 65 -15.5518 51.4708 4 12 225
1935050S13057 1935 10 SI MM NOT_NAMED 1935-02-20 00:00:00 TS -16.3253 50.7275 main 63 61 _________OP___ -1 -16.7000 50.4000 TC 65 -15.9505 51.0550 4 11 221
1935050S13057 1935 10 SI MM NOT_NAMED 1935-02-20 03:00:00 TS -16.7370 50.4020 main 64 44 _________PP___ -1 -17.1498 50.0923 TC 65 -16.3241 50.7118 4 10 216
1935050S13057 1935 10 SI MM NOT_NAMED 1935-02-20 06:00:00 TS -17.1500 50.1000 main 46 33 _________OO___ -1 -17.6000 49.8000 TC 65 -16.7000 50.4000 4 11 214
1935050S13057 1935 10 SI MM NOT_NAMED 1935-02-20 09:00:00 TS -17.6092 49.7927 main 33 10 _________PP___ -1 -18.0448 49.4875 TC 65 -17.1737 50.0979 4 11 215
1935050S13057 1935 10 SI MM NOT_NAMED 1935-02-20 12:00:00 TS -18.0230 49.4549 main 10 0 _________OP___ -1 -18.4000 49.1000 TC 65 -17.6460 49.8098 4 10 224
1935050S13057 1935 10 SI MM NOT_NAMED 1935-02-20 15:00:00 TS -18.3401 49.0434 main 0 0 _________PP___ -1 -18.6099 48.5949 TC 65 -18.0703 49.4919 4 10 238
1935050S13057 1935 10 SI MM NOT_NAMED 1935-02-20 18:00:00 TS -18.5500 48.5500 main 0 0 _________OO___ -1 -18.7000 48.0000 TC 65 -18.4000 49.1000 4 10 255
1935050S13057 1935 10 SI MM NOT_NAMED 1935-02-20 21:00:00 TS -18.6060 47.9958 main 0 0 _________PP___ -1 -18.6772 47.3866 TC 65 -18.5347 48.6050 4 11 265
1935050S13057 1935 10 SI MM NOT_NAMED 1935-02-21 00:00:00 TS -18.6397 47.3656 main 0 0 _________OP___ -1 -18.7000 46.7000 TC 65 -18.5794 48.0312 4 13 262
1935050S13057 1935 10 SI MM NOT_NAMED 1935-02-21 03:00:00 TS -18.7785 46.6537 main 0 0 _________PP___ -1 -18.9475 45.9153 TC 65 -18.6094 47.3921 4 14 255
1935050S13057 1935 10 SI MM NOT_NAMED 1935-02-21 06:00:00 TS -19.0000 45.9000 main 0 0 _________OO___ -1 -19.3000 45.1000 TC 65 -18.7000 46.7000 4 16 250
1935050S13057 1935 10 SI MM NOT_NAMED 1935-02-21 09:00:00 TS -19.3004 45.1049 main 0 0 _________PP___ -1 -19.6501 44.2976 TC 65 -18.9507 45.9122 4 16 247
1935050S13057 1935 10 SI MM NOT_NAMED 1935-02-21 12:00:00 TS -19.6350 44.3425 main 20 15 _________OP___ -1 -20.0000 43.6000 TC 65 -19.2700 45.0850 4 15 244
1935050S13057 1935 10 SI MM NOT_NAMED 1935-02-21 15:00:00 TS -19.9605 43.6861 main 69 69 _________PP___ -1 -20.2921 43.0820 TC 65 -19.6290 44.2901 4 13 239
1935050S13057 1935 10 SI MM NOT_NAMED 1935-02-21 18:00:00 TS -20.3000 43.1500 main 91 91 _________OO___ -1 -20.6000 42.7000 TC 65 -20.0000 43.6000 4 12 234
1935050S13057 1935 10 SI MM NOT_NAMED 1935-02-21 21:00:00 TS -20.6357 42.6903 main 122 114 _________PP___ -1 -20.9624 42.3400 TC 65 -20.3089 43.0405 4 10 226
1935050S13057 1935 10 SI MM NOT_NAMED 1935-02-22 00:00:00 TS -21.0155 42.3512 main 122 122 _________OP___ -1 -21.4000 42.1000 TC 65 -20.6309 42.6024 4 10 212
1935050S13057 1935 10 SI MM NOT_NAMED 1935-02-22 03:00:00 TS -21.4575 42.1353 main 135 118 _________PP___ -1 -21.9274 41.9825 TC 65 -20.9875 42.2880 4 10 197
1935050S13057 1935 10 SI MM NOT_NAMED 1935-02-22 06:00:00 TS -21.9500 42.0500 main 118 115 _________OO___ -1 -22.5000 42.0000 TC 65 -21.4000 42.1000 4 10 187
1935050S13057 1935 10 SI MM NOT_NAMED 1935-02-22 09:00:00 TS -22.4024 42.0088 main 123 121 _________PP___ -1 -22.9823 42.0686 TC 65 -21.8225 41.9490 4 10 177
1935050S13057 1935 10 SI MM NOT_NAMED 1935-02-22 12:00:00 TS -22.9555 42.1136 main 134 122 _________OP___ -1 -23.6000 42.3000 TC 65 -22.3111 41.9271 4 14 165
1935050S13057 1935 10 SI MM NOT_NAMED 1935-02-22 15:00:00 TS -23.7172 42.3868 main 122 101 _________PP___ -1 -24.5401 42.7320 TC 65 -22.8942 42.0415 4 18 159
1935050S13057 1935 10 SI MM NOT_NAMED 1935-02-22 18:00:00 TS -24.6000 42.8000 main 101 87 _________OO___ -1 -25.6000 43.3000 TC 65 -23.6000 42.3000 4 20 156
1935050S13057 1935 10 SI MM NOT_NAMED 1935-02-22 21:00:00 TS -25.5527 43.2909 main 97 97 _________PP___ -1 -26.5950 43.8924 TC 65 -24.5104 42.6894 4 21 153
1935050S13057 1935 10 SI MM NOT_NAMED 1935-02-23 00:00:00 TS -26.5143 43.8605 main 143 143 _________OP___ -1 -27.5000 44.5000 TC 65 -25.5286 43.2211 4 21 151
1935050S13057 1935 10 SI MM NOT_NAMED 1935-02-23 03:00:00 TS -27.4084 44.4397 main 216 216 _________PP___ -1 -28.2593 45.0364 TC 65 -26.5574 43.8430 4 19 148
1935050S13057 1935 10 SI MM NOT_NAMED 1935-02-23 06:00:00 TS -28.1000 44.9714 main 279 279 _________OO___ -1 -28.9000 45.6000 TC 65 -27.5000 44.5000 4 16 143
1935050S13057 1935 10 SI MM NOT_NAMED 1935-02-23 09:00:00 TS -28.6792 45.5180 main 346 346 _________PP___ -1 -29.4686 46.2656 TC 65 -28.2845 45.1442 4 15 139
1935050S13057 1935 10 SI MM NOT_NAMED 1935-02-23 12:00:00 TS -29.1996 46.0781 main 406 406 _________OP___ -1 -30.0000 47.0000 TC 65 -28.9329 45.7708 4 11 137
1935050S13057 1935 10 SI MM NOT_NAMED 1935-02-23 15:00:00 NR -29.4899 46.3867 main 444 444 __________P___ -1 TC -29.4899 46.3867 4 11 135
1935050S13057 1935 10 SI MM NOT_NAMED 1935-02-23 18:00:00 NR -30.0000 47.0000 main 512 __________O___ -1 -30.0000 47.0000 4 15 134

IBTrACS Databaseについて

本データベースは、米国NOAAが公開する1842年以降の世界の熱帯低気圧のベストトラックデータアーカイブInternational Best Track Archive for Climate Stewardship (IBTrACS)を、ウェブで閲覧しやすい形式に変換したものです。

最終更新日:2021-10-21